Time;durP1;ratioP1;P1;durP2;ratioP2;P2;SDS_P1;SDS_P2;PMS_P1;PMS_P2;Temp;Humidity;BMP_temperature;BMP_pressure;BME280_temperature;BME280_humidity;BME280_pressure;Samples;Min_cycle;Max_cycle;Signal;HPM_P1;HPM_P2
2023/06/30 00:02:17;;;;;;;1.95;1.40;;;;;;;17.60;84.70;99820.00;6274580;28;20048;-71
2023/06/30 00:05:18;;;;;;;2.97;1.67;;;;;;;17.57;84.28;99814.19;6274431;28;20110;-71
2023/06/30 00:08:19;;;;;;;2.28;1.73;;;;;;;17.59;83.19;99807.78;6272947;28;20461;-71
2023/06/30 00:11:23;;;;;;;1.83;1.50;;;;;;;17.51;84.33;99810.31;6274402;28;20063;-72
2023/06/30 00:14:26;;;;;;;7.93;1.85;;;;;;;17.53;83.67;99808.38;6274175;28;20409;-71
2023/06/30 00:17:27;;;;;;;6.18;1.50;;;;;;;17.53;85.46;99817.09;6273144;28;20067;-71
2023/06/30 00:20:28;;;;;;;1.88;1.65;;;;;;;17.48;86.04;99815.88;6272804;28;20499;-71
2023/06/30 00:23:29;;;;;;;2.40;1.77;;;;;;;17.32;87.19;99814.69;6273820;28;20049;-71
2023/06/30 00:26:30;;;;;;;2.80;1.75;;;;;;;17.27;88.85;99811.63;6273972;28;20053;-72
2023/06/30 00:29:31;;;;;;;2.40;1.50;;;;;;;17.23;87.65;99806.78;6272809;28;20044;-71
2023/06/30 00:32:32;;;;;;;1.55;1.45;;;;;;;17.21;88.04;99801.66;6306293;28;20464;-71
2023/06/30 00:35:34;;;;;;;4.97;1.92;;;;;;;17.13;87.95;99804.16;6273852;28;20041;-71
2023/06/30 00:38:37;;;;;;;3.57;1.90;;;;;;;17.14;88.09;99807.66;6273907;28;20063;-71
2023/06/30 00:41:37;;;;;;;3.50;2.20;;;;;;;17.12;88.14;99799.88;6305797;28;20053;-70
2023/06/30 00:44:38;;;;;;;4.38;1.73;;;;;;;17.07;87.85;99805.59;6272242;28;20463;-71
2023/06/30 00:47:39;;;;;;;2.90;1.98;;;;;;;17.17;86.52;99799.44;6273244;28;20483;-71
2023/06/30 00:50:40;;;;;;;3.30;2.15;;;;;;;17.19;86.22;99794.84;6271970;28;20633;-71
2023/06/30 00:53:41;;;;;;;10.23;2.25;;;;;;;17.17;86.59;99794.16;6271915;28;20415;-71
2023/06/30 00:56:42;;;;;;;3.33;2.37;;;;;;;17.20;86.50;99797.38;6273738;28;20060;-71
2023/06/30 00:59:42;;;;;;;5.30;2.63;;;;;;;17.16;85.63;99797.78;6272265;28;20581;-71
2023/06/30 01:02:54;;;;;;;6.15;2.40;;;;;;;17.12;86.37;99797.25;6271964;28;20060;-71
2023/06/30 01:06:09;;;;;;;4.05;2.10;;;;;;;17.10;86.21;99800.00;6273253;28;20053;-71
2023/06/30 01:09:18;;;;;;;3.20;2.20;;;;;;;17.09;87.31;99792.25;6271818;28;20056;-71
2023/06/30 01:12:20;;;;;;;5.22;2.30;;;;;;;17.02;87.50;99794.63;6271969;28;20053;-71
2023/06/30 01:15:22;;;;;;;6.05;2.20;;;;;;;17.03;88.60;99795.47;6271597;28;20366;-71
2023/06/30 01:18:24;;;;;;;3.67;2.20;;;;;;;17.03;88.95;99790.19;6271760;28;20056;-71
2023/06/30 01:21:28;;;;;;;;;;;;;;;16.90;88.87;99804.50;6305469;28;20060;-71
2023/06/30 01:24:33;;;;;;;4.70;2.45;;;;;;;16.89;88.96;99783.56;6272528;28;19920;-71
2023/06/30 01:27:36;;;;;;;2.90;2.13;;;;;;;16.89;89.57;99776.47;6272360;28;20114;-71
2023/06/30 01:30:36;;;;;;;4.18;2.20;;;;;;;16.78;90.37;99778.38;6272651;28;20045;-71
2023/06/30 01:33:38;;;;;;;7.05;2.60;;;;;;;16.68;91.17;99783.69;6272301;28;20068;-71
2023/06/30 01:36:39;;;;;;;8.55;2.38;;;;;;;16.82;90.94;99785.06;6272721;28;20057;-71
2023/06/30 01:39:40;;;;;;;3.33;2.30;;;;;;;16.82;91.56;99779.81;6271349;28;20505;-71
2023/06/30 01:42:41;;;;;;;3.05;2.28;;;;;;;16.69;92.17;99772.16;6272685;28;20061;-70
2023/06/30 01:45:42;;;;;;;4.07;2.35;;;;;;;16.63;93.33;99770.91;6272296;28;20053;-71
2023/06/30 01:48:43;;;;;;;5.75;2.40;;;;;;;16.59;93.71;99784.50;6271816;28;20064;-71
2023/06/30 01:51:46;;;;;;;3.15;2.80;;;;;;;16.60;94.10;99779.09;6271142;28;20144;-71
2023/06/30 01:54:47;;;;;;;3.78;2.40;;;;;;;16.51;95.40;99779.91;6270761;28;20053;-71
2023/06/30 01:57:49;;;;;;;3.38;2.13;;;;;;;16.48;95.38;99778.41;6304772;28;20119;-71
2023/06/30 02:00:49;;;;;;;2.40;2.20;;;;;;;16.47;95.86;99784.66;6272863;28;20056;-71
2023/06/30 02:03:51;;;;;;;3.03;2.40;;;;;;;16.44;96.26;99781.47;6275875;28;20076;-71
2023/06/30 02:06:51;;;;;;;3.03;2.30;;;;;;;16.42;95.87;99786.84;6277108;28;20440;-71
2023/06/30 02:09:52;;;;;;;2.70;1.88;;;;;;;16.38;96.47;99777.56;6276031;28;20060;-72
2023/06/30 02:12:53;;;;;;;3.10;2.20;;;;;;;16.33;96.19;99779.78;6276032;28;20139;-71
2023/06/30 02:15:54;;;;;;;2.70;2.17;;;;;;;16.38;96.25;99776.75;6275473;28;20048;-71
2023/06/30 02:18:55;;;;;;;2.97;1.90;;;;;;;16.30;97.64;99772.97;6275825;28;20048;-71
2023/06/30 02:21:56;;;;;;;3.08;2.40;;;;;;;16.27;97.03;99775.91;6276631;28;20182;-71
2023/06/30 02:24:57;;;;;;;3.13;2.17;;;;;;;16.24;97.16;99780.59;6276771;28;20049;-71
2023/06/30 02:27:59;;;;;;;4.30;2.10;;;;;;;16.14;98.06;99774.50;6276887;28;20057;-70
2023/06/30 02:31:00;;;;;;;3.83;2.20;;;;;;;15.96;98.83;99769.91;6275732;28;20088;-72
2023/06/30 02:34:01;;;;;;;3.35;2.00;;;;;;;15.94;99.18;99774.47;6276803;28;20459;-71
2023/06/30 02:37:04;;;;;;;3.08;2.20;;;;;;;16.05;98.27;99781.41;6276849;28;20057;-71
2023/06/30 02:40:09;;;;;;;5.40;2.00;;;;;;;16.05;98.54;99773.50;6276614;28;20096;-71
2023/06/30 02:43:09;;;;;;;4.40;2.47;;;;;;;16.08;98.54;99775.84;6277131;28;20057;-71
2023/06/30 02:46:10;;;;;;;2.60;2.05;;;;;;;16.08;98.51;99784.59;6275208;28;20052;-70
2023/06/30 02:49:13;;;;;;;2.38;2.05;;;;;;;16.13;98.20;99788.63;6276593;28;20056;-71
2023/06/30 02:52:14;;;;;;;8.90;2.05;;;;;;;16.19;97.92;99788.09;6276430;28;20144;-71
2023/06/30 02:55:17;;;;;;;3.67;2.30;;;;;;;16.06;98.90;99780.41;6274319;28;20057;-70
2023/06/30 02:58:18;;;;;;;2.75;2.17;;;;;;;16.01;99.34;99780.00;6308112;28;20053;-71
2023/06/30 03:01:21;;;;;;;5.63;2.35;;;;;;;15.96;99.77;99774.31;6274699;28;20119;-71
2023/06/30 03:04:22;;;;;;;3.70;2.25;;;;;;;15.89;99.95;99782.72;6275805;28;20386;-71
2023/06/30 03:07:22;;;;;;;6.00;2.22;;;;;;;15.99;100.00;99776.69;6275856;28;20057;-71
2023/06/30 03:10:23;;;;;;;3.03;2.10;;;;;;;16.00;99.12;99775.69;6274516;28;20079;-71
2023/06/30 03:13:24;;;;;;;5.82;2.28;;;;;;;16.02;99.58;99769.34;6273546;28;20520;-71
2023/06/30 03:16:24;;;;;;;2.10;1.98;;;;;;;16.03;100.00;99776.28;6274412;28;20049;-70
2023/06/30 03:19:25;;;;;;;2.22;2.03;;;;;;;15.96;100.00;99769.91;6307853;28;20102;-71
2023/06/30 03:22:26;;;;;;;2.97;2.45;;;;;;;15.98;100.00;99765.34;6275499;28;20481;-71
2023/06/30 03:25:26;;;;;;;2.45;1.90;;;;;;;15.96;100.00;99771.66;6274332;28;20056;-71
2023/06/30 03:28:27;;;;;;;5.30;2.13;;;;;;;15.97;100.00;99771.53;6275400;28;20057;-71
2023/06/30 03:31:28;;;;;;;3.20;2.15;;;;;;;15.86;100.00;99772.50;6275531;28;20056;-71
2023/06/30 03:34:29;;;;;;;2.50;2.03;;;;;;;15.91;100.00;99765.00;6273742;28;20045;-71
2023/06/30 03:37:30;;;;;;;3.10;2.20;;;;;;;15.89;100.00;99766.13;6275386;28;20066;-72
2023/06/30 03:40:31;;;;;;;6.68;2.30;;;;;;;15.69;100.00;99752.91;6274358;28;20053;-71
2023/06/30 03:43:33;;;;;;;2.80;2.20;;;;;;;15.85;100.00;99760.28;6307414;28;20125;-71
2023/06/30 03:46:34;;;;;;;4.43;2.15;;;;;;;15.96;100.00;99754.09;6273789;28;20045;-71
2023/06/30 03:49:34;;;;;;;2.57;2.17;;;;;;;15.93;100.00;99761.44;6274975;28;20059;-71
2023/06/30 03:52:35;;;;;;;3.75;2.28;;;;;;;15.87;100.00;99758.34;6273961;28;20053;-71
2023/06/30 03:55:38;;;;;;;3.67;2.22;;;;;;;15.84;100.00;99763.91;6306715;28;20053;-71
2023/06/30 03:58:39;;;;;;;6.25;2.22;;;;;;;15.87;100.00;99758.34;6274888;28;20460;-72
2023/06/30 04:01:40;;;;;;;2.20;1.88;;;;;;;16.12;100.00;99766.72;6274531;28;20087;-70
2023/06/30 04:04:41;;;;;;;2.70;2.13;;;;;;;16.14;100.00;99772.69;6273193;28;20412;-71
2023/06/30 04:07:42;;;;;;;4.07;1.90;;;;;;;16.35;100.00;99761.19;6274471;28;20048;-72
2023/06/30 04:10:43;;;;;;;1.77;1.65;;;;;;;16.46;100.00;99766.34;6274089;28;20141;-71
2023/06/30 04:13:44;;;;;;;2.80;1.90;;;;;;;16.68;100.00;99767.88;6273395;28;20155;-72
2023/06/30 04:16:45;;;;;;;2.80;2.10;;;;;;;16.71;100.00;99762.31;6274198;28;20516;-71
2023/06/30 04:19:48;;;;;;;2.95;2.08;;;;;;;16.74;100.00;99769.94;6306537;28;20110;-71
2023/06/30 04:22:48;;;;;;;3.55;2.05;;;;;;;16.84;100.00;99764.69;6274113;28;20060;-71
2023/06/30 04:25:50;;;;;;;5.15;2.28;;;;;;;16.84;100.00;99776.06;6272172;28;20044;-71
2023/06/30 04:28:51;;;;;;;3.00;2.10;;;;;;;16.91;100.00;99773.69;6274079;28;20140;-71
2023/06/30 04:31:51;;;;;;;2.30;1.88;;;;;;;17.02;100.00;99783.25;6272990;28;20052;-71
2023/06/30 04:34:57;;;;;;;5.57;2.35;;;;;;;16.86;100.00;99784.69;6273862;28;20362;-71
2023/06/30 04:37:58;;;;;;;2.60;2.25;;;;;;;16.78;100.00;99778.38;6273940;28;20053;-71
2023/06/30 04:40:58;;;;;;;2.95;2.38;;;;;;;16.94;100.00;99772.59;6272436;28;20095;-71
2023/06/30 04:44:01;;;;;;;5.75;2.30;;;;;;;16.95;100.00;99780.34;6273488;28;20115;-71
2023/06/30 04:47:03;;;;;;;3.45;2.22;;;;;;;17.03;100.00;99780.47;6272304;28;20404;-72
2023/06/30 04:50:04;;;;;;;2.53;2.20;;;;;;;17.02;100.00;99776.16;6273620;28;20052;-71
2023/06/30 04:53:10;;;;;;;4.30;2.40;;;;;;;17.23;100.00;99783.06;6305958;28;20061;-71
2023/06/30 04:56:11;;;;;;;2.65;2.08;;;;;;;17.40;100.00;99776.19;6273087;28;20052;-71
2023/06/30 04:59:11;;;;;;;5.38;2.30;;;;;;;17.32;100.00;99772.50;6273612;28;20072;-71
2023/06/30 05:02:12;;;;;;;4.40;2.92;;;;;;;17.52;100.00;99783.81;6273012;28;20056;-71
2023/06/30 05:05:13;;;;;;;8.65;2.60;;;;;;;17.63;100.00;99777.50;6273344;28;20151;-71
2023/06/30 05:08:14;;;;;;;3.90;2.83;;;;;;;17.70;99.92;99773.28;6305437;28;20052;-71
2023/06/30 05:11:15;;;;;;;3.15;2.55;;;;;;;17.77;99.92;99781.47;6272005;28;20091;-71
2023/06/30 05:14:16;;;;;;;3.42;2.58;;;;;;;17.94;100.00;99773.78;6271673;28;20047;-71
2023/06/30 05:17:17;;;;;;;3.17;2.57;;;;;;;18.08;99.64;99775.91;6272492;28;20080;-71
2023/06/30 05:20:18;;;;;;;6.05;2.47;;;;;;;18.18;99.03;99775.84;6271734;28;20312;-71
2023/06/30 05:23:19;;;;;;;3.67;2.63;;;;;;;18.09;98.30;99773.13;6271038;28;20056;-71
2023/06/30 05:26:20;;;;;;;6.70;2.80;;;;;;;18.26;96.50;99778.56;6272208;28;20053;-71
2023/06/30 05:29:20;;;;;;;9.98;3.05;;;;;;;18.36;96.37;99770.56;6270929;28;20455;-71
2023/06/30 05:32:22;;;;;;;4.45;2.85;;;;;;;18.46;97.00;99779.25;6270724;28;20067;-71
2023/06/30 05:35:23;;;;;;;7.40;2.72;;;;;;;18.42;95.69;99777.91;6271302;28;20056;-70
2023/06/30 05:38:23;;;;;;;3.65;2.75;;;;;;;18.63;96.41;99770.47;6272179;28;20052;-71
2023/06/30 05:41:24;;;;;;;5.32;3.25;;;;;;;18.80;94.52;99782.06;6272021;28;20056;-70
2023/06/30 05:44:25;;;;;;;3.40;2.70;;;;;;;19.06;93.84;99779.44;6270594;28;20503;-71
2023/06/30 05:59:02;;;;;;;6.88;2.95;;;;;;;19.62;91.03;99781.72;6394837;27;20882;-71
2023/06/30 06:02:03;;;;;;;4.35;2.33;;;;;;;19.89;88.48;99778.03;6393901;27;20047;-71
2023/06/30 06:05:04;;;;;;;4.00;3.10;;;;;;;20.21;86.40;99785.25;6393605;27;20058;-72
2023/06/30 06:08:05;;;;;;;5.30;2.80;;;;;;;20.11;86.32;99795.16;6393597;27;20043;-71
2023/06/30 06:11:05;;;;;;;3.73;2.67;;;;;;;20.34;85.75;99784.78;6393403;27;20111;-71
2023/06/30 06:14:06;;;;;;;2.87;2.53;;;;;;;20.50;83.59;99786.63;6393626;27;20078;-71
2023/06/30 06:17:07;;;;;;;5.23;2.30;;;;;;;20.58;83.20;99786.66;6394578;27;20508;-72
2023/06/30 06:20:08;;;;;;;4.10;2.53;;;;;;;20.76;84.77;99783.88;6394776;27;20057;-71
2023/06/30 06:23:09;;;;;;;4.00;2.60;;;;;;;21.03;85.34;99790.63;6393334;27;20134;-72
2023/06/30 06:26:10;;;;;;;3.87;2.57;;;;;;;21.03;81.95;99785.31;6392954;27;20047;-71
2023/06/30 06:29:14;;;;;;;2.63;2.17;;;;;;;21.32;81.71;99787.41;6393272;27;20053;-71
2023/06/30 06:32:18;;;;;;;3.63;2.55;;;;;;;21.61;82.87;99793.19;6394084;27;20053;-72
2023/06/30 06:35:19;;;;;;;3.28;2.38;;;;;;;21.75;79.11;99800.44;6394293;27;20054;-73
2023/06/30 06:38:20;;;;;;;5.03;2.57;;;;;;;22.04;79.94;99789.16;6392860;27;20410;-72
2023/06/30 06:41:20;;;;;;;2.73;2.27;;;;;;;22.19;76.00;99799.88;6392965;27;20050;-72
2023/06/30 06:44:21;;;;;;;3.30;2.40;;;;;;;22.05;74.45;99795.31;6394107;27;20391;-71
2023/06/30 06:47:59;;;;;;;3.27;2.17;;;;;;;22.20;74.51;99796.22;6393965;27;20050;-72
2023/06/30 06:51:03;;;;;;;3.28;2.20;;;;;;;22.62;73.66;99794.16;6393565;27;20047;-71
2023/06/30 06:54:03;;;;;;;3.50;2.20;;;;;;;22.92;74.38;99793.22;6392621;27;20075;-71
2023/06/30 06:57:05;;;;;;;3.67;2.27;;;;;;;22.90;70.97;99789.91;6393448;27;20194;-71
2023/06/30 07:00:06;;;;;;;2.90;1.90;;;;;;;23.03;71.40;99786.66;6375996;27;20054;-71
2023/06/30 07:03:07;;;;;;;3.75;1.75;;;;;;;23.42;71.50;99788.25;6375091;27;20051;-71
2023/06/30 07:06:07;;;;;;;2.30;2.10;;;;;;;23.60;69.32;99792.41;6376338;27;20379;-72
2023/06/30 07:09:08;;;;;;;2.63;1.87;;;;;;;23.62;69.00;99795.72;6374992;27;20051;-72
2023/06/30 07:12:09;;;;;;;3.38;1.95;;;;;;;23.85;66.91;99787.63;6376244;27;20055;-71
2023/06/30 07:15:12;;;;;;;2.07;1.60;;;;;;;23.73;64.88;99792.56;6374734;27;20089;-71
2023/06/30 07:18:17;;;;;;;7.30;1.98;;;;;;;23.75;66.02;99782.56;6375924;27;20086;-72
2023/06/30 07:21:18;;;;;;;3.75;1.90;;;;;;;24.24;66.63;99786.44;6375821;27;20446;-71
2023/06/30 07:24:19;;;;;;;3.87;2.00;;;;;;;24.42;63.34;99784.16;6374464;27;20051;-71
2023/06/30 07:27:20;;;;;;;3.03;1.50;;;;;;;24.32;61.61;99775.66;6374376;27;20314;-72
2023/06/30 07:30:23;;;;;;;1.90;1.57;;;;;;;24.55;62.81;99785.34;6374490;27;20047;-72
2023/06/30 07:33:23;;;;;;;2.35;1.48;;;;;;;24.58;62.99;99783.09;6374560;27;20043;-72
2023/06/30 07:36:24;;;;;;;2.10;1.63;;;;;;;24.98;61.72;99775.44;6374273;27;20100;-72
2023/06/30 07:39:25;;;;;;;2.03;1.60;;;;;;;25.20;60.56;99780.69;6374498;27;20047;-71
2023/06/30 07:42:26;;;;;;;3.30;1.70;;;;;;;25.16;59.81;99782.09;6375372;27;20109;-71
2023/06/30 07:45:26;;;;;;;7.23;1.43;;;;;;;25.19;59.25;99771.03;6373960;27;20569;-72
2023/06/30 07:48:27;;;;;;;2.23;1.23;;;;;;;25.26;57.95;99764.75;6375130;27;20043;-72
2023/06/30 07:51:29;;;;;;;1.97;1.30;;;;;;;25.22;58.56;99766.16;6373969;27;20494;-72
2023/06/30 07:54:30;;;;;;;2.10;1.48;;;;;;;25.76;58.08;99763.75;6374952;27;20500;-72
2023/06/30 07:57:30;;;;;;;1.50;1.30;;;;;;;25.95;56.74;99757.69;6374853;27;20047;-71
2023/06/30 08:00:31;;;;;;;1.40;1.30;;;;;;;26.13;55.31;99760.63;6375138;27;20054;-72
2023/06/30 08:03:35;;;;;;;1.50;1.40;;;;;;;26.53;56.95;99759.84;6373609;27;20051;-71
2023/06/30 08:06:36;;;;;;;1.63;1.40;;;;;;;26.58;52.59;99754.72;6374816;27;20043;-72
2023/06/30 08:09:37;;;;;;;1.67;1.20;;;;;;;26.59;51.34;99742.19;6372731;27;20508;-72
2023/06/30 08:12:40;;;;;;;2.23;1.13;;;;;;;26.42;50.98;99755.09;6374650;27;20482;-71
2023/06/30 08:15:42;;;;;;;2.05;1.55;;;;;;;26.62;51.80;99747.13;6374560;27;20053;-72
2023/06/30 08:18:42;;;;;;;2.70;1.30;;;;;;;26.62;51.05;99752.47;6374459;27;20074;-72
2023/06/30 08:21:43;;;;;;;3.08;1.10;;;;;;;26.61;50.13;99746.31;6374392;27;20054;-72
2023/06/30 08:24:44;;;;;;;0.90;0.90;;;;;;;27.01;52.71;99740.91;6372973;27;20055;-71
2023/06/30 08:27:45;;;;;;;1.60;1.27;;;;;;;27.01;50.89;99742.78;6373242;27;20161;-72
2023/06/30 08:30:46;;;;;;;2.60;1.10;;;;;;;27.14;49.22;99742.75;6373052;27;20547;-71
2023/06/30 08:33:47;;;;;;;1.50;1.20;;;;;;;27.20;50.00;99744.59;6374253;27;20104;-72
2023/06/30 08:36:47;;;;;;;1.73;1.30;;;;;;;27.30;49.76;99736.97;6372678;27;20054;-72
2023/06/30 08:39:48;;;;;;;7.18;1.45;;;;;;;27.48;50.40;99747.00;6374188;27;20051;-72
2023/06/30 08:42:52;;;;;;;0.97;0.90;;;;;;;27.53;49.73;99739.16;6374030;27;20062;-72
2023/06/30 08:45:54;;;;;;;2.15;1.40;;;;;;;27.83;47.35;99730.56;6372306;27;20658;-72
2023/06/30 08:48:55;;;;;;;3.22;1.30;;;;;;;27.90;48.06;99733.22;6372853;27;20051;-72
2023/06/30 08:51:57;;;;;;;1.45;1.20;;;;;;;27.98;47.65;99727.63;6373749;27;20090;-72
2023/06/30 08:55:01;;;;;;;1.23;1.00;;;;;;;28.11;47.44;99732.91;6373685;27;20047;-72
2023/06/30 08:58:02;;;;;;;1.52;1.02;;;;;;;28.05;47.91;99733.78;6372119;27;20105;-72
2023/06/30 09:01:03;;;;;;;1.20;1.10;;;;;;;27.83;45.70;99737.78;6372600;27;20057;-71
2023/06/30 09:04:05;;;;;;;3.60;1.20;;;;;;;27.87;46.02;99731.81;6373342;27;20402;-71
2023/06/30 09:07:18;;;;;;;1.60;1.02;;;;;;;28.13;45.18;99725.47;6372353;27;20039;-72
2023/06/30 09:10:21;;;;;;;2.67;1.30;;;;;;;28.31;46.23;99729.25;6372178;27;20505;-72
2023/06/30 09:13:23;;;;;;;4.30;1.15;;;;;;;28.59;43.88;99726.19;6372405;27;20134;-72
2023/06/30 09:16:24;;;;;;;1.20;1.00;;;;;;;28.53;43.19;99725.19;6372021;27;20168;-72
2023/06/30 09:19:25;;;;;;;2.80;1.27;;;;;;;28.75;43.95;99715.94;6372110;27;20055;-72
2023/06/30 09:22:26;;;;;;;1.30;1.20;;;;;;;28.21;44.74;99720.88;6373178;27;20047;-72
2023/06/30 09:25:27;;;;;;;1.30;1.20;;;;;;;28.49;44.63;99724.00;6372015;27;20066;-72
2023/06/30 09:28:34;;;;;;;4.97;1.50;;;;;;;29.03;42.19;99720.81;6373029;27;20485;-72
2023/06/30 09:31:35;;;;;;;2.60;1.40;;;;;;;29.54;42.13;99719.66;6371916;27;20271;-72
2023/06/30 09:34:36;;;;;;;1.63;1.50;;;;;;;29.28;42.85;99720.78;6372030;27;20078;-72
2023/06/30 09:37:43;;;;;;;1.70;1.60;;;;;;;29.79;47.26;99716.03;6372887;27;20092;-72
2023/06/30 09:40:46;;;;;;;2.47;1.40;;;;;;;29.82;42.30;99724.50;6371834;27;20051;-72
2023/06/30 09:43:48;;;;;;;4.82;1.40;;;;;;;28.89;43.29;99720.97;6371592;27;20051;-72
2023/06/30 09:46:51;;;;;;;1.90;1.30;;;;;;;27.88;44.47;99705.81;6371419;28;20043;-72
2023/06/30 09:49:56;;;;;;;1.45;1.35;;;;;;;27.97;43.82;99712.59;6372642;27;20532;-71
2023/06/30 09:52:56;;;;;;;2.53;1.63;;;;;;;28.72;42.55;99709.97;6371810;28;20050;-72
2023/06/30 09:55:57;;;;;;;2.53;1.70;;;;;;;28.36;40.34;99707.16;6371340;28;20492;-72
2023/06/30 09:58:58;;;;;;;2.85;1.73;;;;;;;28.76;40.26;99698.78;6372423;27;20319;-71
2023/06/30 10:01:59;;;;;;;1.95;1.50;;;;;;;29.82;40.17;99708.34;6372688;27;20043;-72
2023/06/30 10:05:03;;;;;;;2.08;1.42;;;;;;;29.62;39.34;99697.03;6371264;28;20057;-71
2023/06/30 10:08:04;;;;;;;1.70;1.52;;;;;;;29.99;39.68;99705.03;6371322;28;20062;-72
2023/06/30 10:11:07;;;;;;;3.35;1.50;;;;;;;29.92;36.79;99700.56;6372499;27;20059;-72
2023/06/30 10:14:10;;;;;;;3.38;1.67;;;;;;;30.10;39.54;99701.53;6372474;27;20494;-71
2023/06/30 10:17:12;;;;;;;2.00;1.30;;;;;;;30.33;37.69;99698.94;6371076;28;20103;-72
2023/06/30 10:20:12;;;;;;;3.42;1.52;;;;;;;30.76;37.61;99693.44;6371289;28;20108;-72
2023/06/30 10:23:14;;;;;;;1.98;1.40;;;;;;;30.25;38.31;99696.53;6371092;28;20498;-71
2023/06/30 10:26:18;;;;;;;2.00;1.30;;;;;;;30.23;37.80;99703.19;6371176;28;20047;-72
2023/06/30 10:29:20;;;;;;;1.80;1.60;;;;;;;29.96;41.19;99692.00;6371101;28;20051;-72
2023/06/30 10:32:21;;;;;;;1.50;1.40;;;;;;;30.24;39.62;99694.06;6372260;27;20096;-72
2023/06/30 10:35:22;;;;;;;2.20;1.50;;;;;;;30.33;39.95;99695.41;6376631;27;20494;-72
2023/06/30 10:38:23;;;;;;;5.30;1.40;;;;;;;30.27;42.31;99688.22;6377075;27;20045;-72
2023/06/30 10:41:24;;;;;;;5.13;1.10;;;;;;;30.25;39.47;99685.78;6375944;27;20047;-71
2023/06/30 10:44:47;;;;;;;1.48;1.25;;;;;;;30.45;37.25;99690.03;6376827;27;20050;-72
2023/06/30 10:59:25;;;;;;;1.50;1.25;;;;;;;30.90;37.96;99666.03;6394802;27;20380;-70
2023/06/30 11:02:29;;;;;;;;;;;;;;;30.64;37.55;99659.28;6394190;27;20094;-70
2023/06/30 11:05:33;;;;;;;2.20;1.08;;;;;;;29.85;39.73;99667.53;6394657;27;20400;-71
2023/06/30 11:08:36;;;;;;;2.97;1.27;;;;;;;28.92;40.88;99663.31;6394861;27;20038;-72
2023/06/30 11:11:50;;;;;;;1.17;1.08;;;;;;;29.37;39.93;99659.53;6393557;27;20078;-72
2023/06/30 11:14:59;;;;;;;1.40;1.30;;;;;;;28.65;40.59;99652.03;6394665;27;20047;-72
2023/06/30 11:18:10;;;;;;;1.48;1.05;;;;;;;28.59;41.23;99655.59;6394585;27;20043;-72
2023/06/30 11:21:11;;;;;;;1.23;1.13;;;;;;;29.80;40.76;99663.94;6394753;27;20075;-71
2023/06/30 11:24:17;;;;;;;1.40;1.30;;;;;;;30.60;38.40;99652.72;6394219;27;20047;-72
2023/06/30 11:27:18;;;;;;;1.88;1.27;;;;;;;30.28;41.84;99644.94;6394443;27;20047;-72
2023/06/30 11:30:21;;;;;;;1.52;1.15;;;;;;;31.16;36.73;99646.91;6393885;27;20521;-72
2023/06/30 11:33:23;;;;;;;0.93;0.90;;;;;;;30.99;35.23;99636.03;6393276;27;20043;-73
2023/06/30 11:36:30;;;;;;;1.85;1.13;;;;;;;30.79;38.25;99649.88;6393893;27;20047;-72
2023/06/30 11:39:31;;;;;;;2.05;1.25;;;;;;;30.65;39.55;99631.28;6393078;27;20053;-72
2023/06/30 11:42:35;;;;;;;1.60;1.02;;;;;;;30.91;38.07;99635.38;6392792;27;20047;-72
2023/06/30 11:45:36;;;;;;;1.45;1.20;;;;;;;30.97;38.55;99632.78;6392611;27;20051;-72
2023/06/30 11:48:39;;;;;;;1.10;1.00;;;;;;;31.19;37.53;99633.78;6393847;27;20501;-72
2023/06/30 11:51:40;;;;;;;1.33;1.23;;;;;;;31.90;35.68;99639.69;6390764;27;20051;-72
2023/06/30 11:54:41;;;;;;;1.20;1.10;;;;;;;31.57;37.30;99632.38;6393561;27;20126;-72
2023/06/30 11:57:46;;;;;;;0.98;0.98;;;;;;;30.47;38.32;99632.22;6390349;27;20130;-71
2023/06/30 12:00:47;;;;;;;2.83;1.40;;;;;;;30.10;38.19;99632.44;6376185;27;20047;-72
2023/06/30 12:04:08;;;;;;;2.42;1.27;;;;;;;31.16;39.11;99631.56;6375031;27;20051;-72
2023/06/30 12:07:09;;;;;;;1.40;1.08;;;;;;;30.33;38.09;99620.88;6376037;27;20376;-71
2023/06/30 12:10:11;;;;;;;1.55;1.13;;;;;;;29.80;39.12;99620.91;6374880;27;20104;-72
2023/06/30 12:13:12;;;;;;;1.27;1.15;;;;;;;29.96;40.02;99620.25;6376020;27;20524;-72
2023/06/30 12:16:13;;;;;;;1.45;1.35;;;;;;;30.12;38.58;99610.66;6374610;27;20058;-72
2023/06/30 12:19:15;;;;;;;2.42;1.40;;;;;;;29.45;40.11;99611.66;6374614;27;20055;-72
2023/06/30 12:22:23;;;;;;;1.58;1.15;;;;;;;29.29;40.68;99604.22;6375765;27;20141;-72
2023/06/30 12:25:26;;;;;;;1.40;1.00;;;;;;;29.41;39.88;99602.41;6374473;27;20043;-72
2023/06/30 12:28:27;;;;;;;5.57;0.80;;;;;;;29.85;38.82;99604.88;6374293;27;20092;-72
2023/06/30 12:31:31;;;;;;;1.10;0.98;;;;;;;29.54;39.89;99594.13;6375762;27;20047;-72
2023/06/30 12:34:32;;;;;;;3.65;1.20;;;;;;;29.18;40.98;99587.00;6374050;27;20483;-71
2023/06/30 12:37:32;;;;;;;1.60;1.02;;;;;;;28.82;40.34;99588.66;6374093;27;20079;-72
2023/06/30 12:40:34;;;;;;;2.08;1.20;;;;;;;29.68;41.75;99589.41;6374264;27;20058;-72
2023/06/30 12:43:35;;;;;;;4.65;1.00;;;;;;;29.55;39.22;99586.91;6373976;27;20134;-71
2023/06/30 12:46:38;;;;;;;1.30;1.10;;;;;;;29.70;40.33;99581.94;6375141;27;20053;-72
2023/06/30 12:49:39;;;;;;;1.23;1.10;;;;;;;30.30;39.23;99569.41;6375110;27;20054;-72
2023/06/30 12:52:40;;;;;;;1.63;1.17;;;;;;;29.88;40.49;99572.19;6373983;27;20051;-71
2023/06/30 12:55:41;;;;;;;2.45;1.20;;;;;;;29.20;39.15;99571.50;6374770;27;20051;-71
2023/06/30 12:58:42;;;;;;;1.10;1.00;;;;;;;29.15;39.99;99570.53;6373429;27;20094;-72
2023/06/30 13:01:43;;;;;;;1.85;1.20;;;;;;;29.04;39.01;99561.34;6374910;27;20055;-72
2023/06/30 13:04:43;;;;;;;1.67;0.98;;;;;;;29.39;41.35;99569.56;6373572;27;20050;-72
2023/06/30 13:07:44;;;;;;;3.45;1.05;;;;;;;30.04;40.82;99554.50;6373491;27;20092;-72
2023/06/30 13:10:45;;;;;;;1.65;1.20;;;;;;;30.57;40.94;99555.44;6372346;27;20070;-72
2023/06/30 13:13:46;;;;;;;1.08;0.95;;;;;;;30.77;39.57;99550.50;6374610;27;20050;-72
2023/06/30 13:16:47;;;;;;;4.28;1.35;;;;;;;30.92;39.11;99553.50;6373089;27;20047;-72
2023/06/30 13:19:48;;;;;;;1.65;0.90;;;;;;;30.89;36.53;99545.09;6374547;27;20478;-72
2023/06/30 13:22:49;;;;;;;3.95;1.30;;;;;;;30.92;36.38;99539.22;6374203;27;20113;-72
2023/06/30 13:25:49;;;;;;;1.23;0.90;;;;;;;30.91;38.14;99540.31;6373049;27;20214;-72
2023/06/30 13:28:50;;;;;;;1.95;1.05;;;;;;;30.44;37.64;99533.13;6372958;27;20548;-72
2023/06/30 13:31:53;;;;;;;2.63;1.20;;;;;;;29.96;37.60;99531.50;6372847;27;20411;-72
2023/06/30 13:34:54;;;;;;;1.15;1.00;;;;;;;30.35;40.02;99529.13;6372732;27;20553;-72
2023/06/30 13:37:55;;;;;;;2.17;1.27;;;;;;;30.61;39.89;99530.50;6373729;27;20043;-72
2023/06/30 13:40:56;;;;;;;1.60;1.20;;;;;;;30.58;37.36;99530.16;6372837;27;20043;-72
2023/06/30 13:43:57;;;;;;;1.25;1.05;;;;;;;30.52;35.01;99526.56;6373669;27;20130;-72
2023/06/30 13:46:57;;;;;;;1.50;1.10;;;;;;;30.62;36.65;99521.38;6373753;27;20043;-72
2023/06/30 13:49:58;;;;;;;1.63;1.15;;;;;;;30.96;40.48;99518.03;6372393;27;20478;-72
2023/06/30 13:52:59;;;;;;;1.63;1.10;;;;;;;30.41;36.58;99516.63;6372545;27;20050;-72
2023/06/30 13:55:59;;;;;;;1.15;1.00;;;;;;;30.48;37.98;99512.75;6372090;27;20047;-73
2023/06/30 13:59:00;;;;;;;1.02;0.93;;;;;;;30.25;38.30;99505.50;6372219;27;20082;-73
2023/06/30 14:02:01;;;;;;;1.38;1.27;;;;;;;29.88;38.89;99503.06;6372157;27;20078;-72
2023/06/30 14:05:02;;;;;;;1.38;1.10;;;;;;;29.43;39.69;99503.56;6373225;27;20481;-72
2023/06/30 14:08:03;;;;;;;;;;;;;;;29.40;38.98;99498.66;6372337;27;20069;-71
2023/06/30 14:11:03;;;;;;;1.40;1.10;;;;;;;29.76;40.53;99501.44;6372018;27;19919;-72
2023/06/30 14:14:07;;;;;;;3.42;1.13;;;;;;;29.83;39.07;99499.44;6373048;27;20478;-71
2023/06/30 14:17:07;;;;;;;1.25;1.15;;;;;;;29.29;38.68;99492.19;6371692;27;20090;-72
2023/06/30 14:20:09;;;;;;;2.45;1.00;;;;;;;29.21;39.42;99484.47;6372040;27;20274;-72
2023/06/30 14:23:09;;;;;;;;;;;;;;;29.73;41.10;99482.03;6373122;27;20063;-72
2023/06/30 14:26:10;;;;;;;1.47;1.10;;;;;;;30.32;41.15;99475.81;6372923;27;19978;-72
2023/06/30 14:29:11;;;;;;;1.70;1.30;;;;;;;30.53;38.95;99477.84;6373170;27;20059;-71
2023/06/30 14:32:14;;;;;;;1.55;1.45;;;;;;;30.39;38.39;99465.72;6372851;27;20419;-72
2023/06/30 14:35:14;;;;;;;1.75;1.48;;;;;;;30.39;38.09;99468.41;6371697;27;20054;-72
2023/06/30 14:38:15;;;;;;;1.33;1.10;;;;;;;30.10;35.90;99459.44;6372585;27;20043;-72
2023/06/30 14:41:16;;;;;;;3.30;1.08;;;;;;;30.35;36.88;99452.97;6371710;27;20047;-71